Etusivu
METAR-TAF:

METAR-TAF

Lentoasemat :

Lemmijoki, Norja

Leveyspiiri: 70-04N, Pituuspiiri: 024-59E, korkeus merenpinnasta: 0 m

Tämänhetkinen sää

Tämä raportti tehtiin 22 minuuttia sitten, kello 18.20 UTC
tyyntä
Lämpötila 5°C
Kosteus 93%
Ilmanpaine 1026 hPa
Näkyvyys 10 km tai enemmän
ei pilviä alle 1500 m:ssä eikä cumulonimbus-pilviä

METAR: ENNA 221820Z 00000KT CAVOK 05/04 Q1026 RMK WIND 1800FT 20007KT

Aika: 20:42 (18:42 UTC)

Sääennuste

Ennuste voimassa 22. päivästä klo 18 UTC - 23. päivään klo 18 UTC
Tuuli 12 kn etelästä
Näkyvyys 10 km tai enemmän
Muutamia pilviä 1500 ft:n korkeudessa
Hajanaisia pilviä 2500 ft:n korkeudessa
Ajoittain
22. päivästä klo 18 UTC - 23. päivään klo 06 UTC
Tuuli 5 kn pohjoisen/luoteesta
Todennäköisyys 30%
22. päivästä klo 24 UTC - 23. päivään klo 06 UTC
Näkyvyys: 1000 m
200 ft:n korkeudessa
sumua

TAF: ENNA 2218/2318 18012KT 9999 FEW015 SCT025 TEMPO 2218/2306 34005KT PROB30 2224/2306 1000 FG VV002

Säähavainnot ja -ennusteet yli 4000 lentoasemalta (METAR- ja TAF-raportit).

Käytössä olevat sääasemat on merkitty karttaan keltaisilla ja punaisilla pisteillä.

Aseta hiiri pisteen päälle nähdäksesi sääaseman nimen.

Klikkaa sitten nähdäksesi säähavainnot ja -ennusteet.

Kartan vaihtaminen: klikkaa mustalla rastilla varustettuja vihreitä pisteitä, niin voit zoomata sisään; viivalla varustettua vihreää pistettä, niin voit zoomata ulos tai vihreitä nuolia, niin pääset viereisille kartoille.


METAR-TAF: